Time;durP1;ratioP1;P1;durP2;ratioP2;P2;SDS_P1;SDS_P2;PMS_P1;PMS_P2;Temp;Humidity;BMP_temperature;BMP_pressure;BME280_temperature;BME280_humidity;BME280_pressure;Samples;Min_cycle;Max_cycle;Signal;HPM_P1;HPM_P2
2023/12/06 00:01:59;;;;;;;45.90;29.50;;;;;;;1.89;100.00;100888.97;5049516;28;20044;-72
2023/12/06 00:04:25;;;;;;;41.35;27.35;;;;;;;1.88;100.00;100893.38;5055209;28;20219;-72
2023/12/06 00:06:50;;;;;;;40.65;26.92;;;;;;;1.86;100.00;100889.94;5058334;28;20082;-72
2023/12/06 00:09:15;;;;;;;40.92;26.52;;;;;;;1.86;100.00;100884.63;5053480;28;20066;-72
2023/12/06 00:11:41;;;;;;;44.00;26.98;;;;;;;1.86;100.00;100887.28;5055134;28;20677;-72
2023/12/06 00:14:06;;;;;;;42.30;26.30;;;;;;;1.86;100.00;100897.00;5057918;28;20046;-72
2023/12/06 00:16:31;;;;;;;45.10;29.05;;;;;;;1.88;100.00;100905.78;5051617;28;20029;-72
2023/12/06 00:18:56;;;;;;;43.55;26.63;;;;;;;1.88;100.00;100905.78;5058116;28;20036;-72
2023/12/06 00:21:22;;;;;;;41.47;25.65;;;;;;;1.87;100.00;100901.41;5057516;28;20052;-72
2023/12/06 00:23:47;;;;;;;48.35;27.27;;;;;;;1.87;100.00;100907.56;5054903;28;20029;-72
2023/12/06 00:26:13;;;;;;;40.13;24.88;;;;;;;1.88;100.00;100908.44;5052825;28;20033;-74
2023/12/06 00:28:38;;;;;;;40.67;26.00;;;;;;;1.88;100.00;100914.59;5053327;28;20017;-74
2023/12/06 00:31:03;;;;;;;42.60;27.10;;;;;;;1.89;100.00;100905.72;5051255;28;20028;-74
2023/12/06 00:33:29;;;;;;;41.58;25.52;;;;;;;1.92;100.00;100916.22;5055652;28;20028;-73
2023/12/06 00:35:54;;;;;;;40.85;25.63;;;;;;;1.92;100.00;100913.56;5054962;28;20032;-74
2023/12/06 00:38:19;;;;;;;43.42;26.85;;;;;;;1.91;100.00;100918.94;5052783;28;20058;-74
2023/12/06 00:40:45;;;;;;;41.67;25.05;;;;;;;1.92;100.00;100923.31;5058249;28;20333;-74
2023/12/06 00:43:10;;;;;;;42.47;26.52;;;;;;;1.92;100.00;100926.81;5057024;28;20112;-74
2023/12/06 00:45:35;;;;;;;42.85;26.10;;;;;;;1.94;100.00;100925.91;5050881;28;20072;-73
2023/12/06 00:48:01;;;;;;;41.38;25.80;;;;;;;1.94;100.00;100926.75;5050317;28;20498;-73
2023/12/06 00:50:26;;;;;;;40.05;24.90;;;;;;;1.92;100.00;100926.81;5050968;28;20044;-73
2023/12/06 00:52:51;;;;;;;39.60;25.40;;;;;;;1.94;100.00;100934.72;5058611;28;20021;-72
2023/12/06 00:55:17;;;;;;;42.25;25.33;;;;;;;1.94;100.00;100937.34;5047330;28;20043;-74
2023/12/06 00:57:42;;;;;;;38.35;25.27;;;;;;;1.92;100.00;100937.41;5047768;28;20035;-74
2023/12/06 01:00:08;;;;;;;42.50;25.10;;;;;;;1.92;100.00;100945.38;5061089;28;20125;-74
2023/12/06 01:02:33;;;;;;;38.97;24.08;;;;;;;1.93;100.00;100948.88;5060177;28;20024;-73
2023/12/06 01:04:59;;;;;;;41.65;24.15;;;;;;;1.92;100.00;100947.16;5056224;28;20412;-73
2023/12/06 01:07:24;;;;;;;42.22;24.75;;;;;;;1.94;100.00;100950.63;5049427;28;20044;-74
2023/12/06 01:09:49;;;;;;;38.88;23.98;;;;;;;1.97;100.00;100958.44;5046740;28;20087;-74
2023/12/06 01:12:15;;;;;;;38.60;24.08;;;;;;;1.97;100.00;100953.16;5050117;28;20025;-74
2023/12/06 01:14:40;;;;;;;39.17;23.63;;;;;;;1.96;100.00;100954.06;5049985;28;20037;-74
2023/12/06 01:17:06;;;;;;;38.65;22.98;;;;;;;1.98;100.00;100956.69;5049928;28;20065;-73
2023/12/06 01:19:31;;;;;;;38.85;21.83;;;;;;;1.99;100.00;100966.34;5053194;28;20130;-74
2023/12/06 01:21:56;;;;;;;34.90;21.70;;;;;;;2.00;100.00;100955.69;5058401;28;20561;-74
2023/12/06 01:24:24;;;;;;;37.40;23.15;;;;;;;2.01;100.00;100973.34;5050004;28;20025;-74
2023/12/06 01:26:49;;;;;;;37.75;23.05;;;;;;;2.02;100.00;100972.41;5044853;28;20089;-73
2023/12/06 01:29:15;;;;;;;37.67;22.33;;;;;;;2.01;100.00;100978.63;5049648;28;20032;-74
2023/12/06 01:31:41;;;;;;;35.55;22.08;;;;;;;2.01;100.00;100986.59;5056534;28;20400;-73
2023/12/06 01:34:07;;;;;;;37.33;20.90;;;;;;;2.01;100.00;100981.28;5055080;28;20034;-73
2023/12/06 01:36:32;;;;;;;35.00;21.05;;;;;;;2.04;100.00;100978.53;5055605;28;20116;-72
2023/12/06 01:38:57;;;;;;;37.15;21.75;;;;;;;2.02;100.00;100984.78;5067598;28;20043;-72
2023/12/06 01:41:23;;;;;;;37.38;21.45;;;;;;;2.01;100.00;100983.94;5068041;28;20104;-72
2023/12/06 01:43:48;;;;;;;37.85;21.02;;;;;;;2.02;100.00;100990.09;5068778;28;20404;-72
2023/12/06 01:46:13;;;;;;;37.88;21.15;;;;;;;2.03;100.00;100987.38;5066480;28;20054;-72
2023/12/06 01:48:41;;;;;;;36.17;20.55;;;;;;;2.04;100.00;100993.56;5063118;28;20052;-72
2023/12/06 01:51:08;;;;;;;33.85;20.08;;;;;;;2.02;100.00;101006.88;5066381;28;20047;-72
2023/12/06 01:53:34;;;;;;;33.20;20.77;;;;;;;2.04;100.00;100997.06;5072498;28;20490;-71
2023/12/06 01:56:00;;;;;;;32.17;19.42;;;;;;;2.04;100.00;101005.03;5060774;28;20025;-72
2023/12/06 01:58:28;;;;;;;34.05;20.73;;;;;;;2.03;100.00;101000.63;5066132;28;20095;-72
2023/12/06 02:00:54;;;;;;;33.60;20.10;;;;;;;2.02;100.00;101012.19;5066277;28;20028;-72
2023/12/06 02:03:20;;;;;;;33.92;19.35;;;;;;;2.00;100.00;101003.41;5065497;28;20354;-72
2023/12/06 02:05:47;;;;;;;37.88;21.65;;;;;;;1.99;100.00;101011.41;5061886;28;20103;-72
2023/12/06 02:08:13;;;;;;;32.33;19.50;;;;;;;1.98;100.00;101012.34;5065257;28;20036;-72
2023/12/06 02:10:38;;;;;;;34.65;19.55;;;;;;;2.01;100.00;101010.44;5068468;28;20075;-72
2023/12/06 02:13:03;;;;;;;31.77;18.30;;;;;;;2.04;100.00;101018.28;5065991;28;20036;-72
2023/12/06 02:15:29;;;;;;;31.30;18.52;;;;;;;2.04;100.00;101014.78;5073130;28;20436;-72
2023/12/06 02:17:55;;;;;;;29.05;17.35;;;;;;;2.05;100.00;101027.09;5062265;28;20021;-72
2023/12/06 02:20:20;;;;;;;31.75;18.27;;;;;;;2.07;100.00;101025.28;5067630;28;20029;-72
2023/12/06 02:22:49;;;;;;;31.83;18.17;;;;;;;2.06;100.00;101023.53;5064561;28;20024;-72
2023/12/06 02:25:15;;;;;;;32.15;18.65;;;;;;;2.10;100.00;101022.50;5071025;28;20521;-72
2023/12/06 02:27:42;;;;;;;32.70;18.73;;;;;;;2.10;100.00;101015.41;5065556;28;20118;-72
2023/12/06 02:30:09;;;;;;;31.92;18.65;;;;;;;2.10;100.00;101019.88;5062614;28;20047;-72
2023/12/06 02:32:35;;;;;;;30.25;17.50;;;;;;;2.12;100.00;101022.47;5070060;28;20020;-72
2023/12/06 02:35:02;;;;;;;30.40;17.60;;;;;;;2.14;100.00;101025.91;5072059;28;20129;-72
2023/12/06 02:37:28;;;;;;;30.70;18.48;;;;;;;2.13;100.00;101016.25;5064987;28;20028;-72
2023/12/06 02:39:55;;;;;;;32.72;18.63;;;;;;;2.14;100.00;101020.59;5063815;28;20113;-72
2023/12/06 02:42:20;;;;;;;31.48;15.90;;;;;;;2.15;100.00;101017.91;5066425;28;20036;-72
2023/12/06 02:44:46;;;;;;;30.70;17.90;;;;;;;2.17;100.00;101017.88;5071587;28;20043;-72
2023/12/06 02:47:11;;;;;;;31.35;16.63;;;;;;;2.16;100.00;101018.78;5068884;28;20028;-72
2023/12/06 02:49:36;;;;;;;31.17;15.90;;;;;;;2.18;100.00;101019.59;5068796;28;20110;-72
2023/12/06 02:52:02;;;;;;;30.15;17.75;;;;;;;2.16;100.00;101022.28;5072928;28;20511;-72
2023/12/06 02:54:27;;;;;;;31.05;16.95;;;;;;;2.18;100.00;101024.88;5068681;28;20029;-72
2023/12/06 02:56:53;;;;;;;29.58;17.33;;;;;;;2.18;100.00;101032.84;5067417;28;20044;-72
2023/12/06 02:59:18;;;;;;;29.63;16.67;;;;;;;2.18;100.00;101024.88;5067307;28;20088;-72
2023/12/06 03:01:50;;;;;;;29.23;15.43;;;;;;;2.18;100.00;101032.84;5065117;28;20096;-72
2023/12/06 03:04:15;;;;;;;30.63;16.77;;;;;;;2.19;100.00;101029.28;5066601;28;20032;-72
2023/12/06 03:06:40;;;;;;;30.98;16.83;;;;;;;2.21;100.00;101030.06;5063001;28;20577;-72
2023/12/06 03:09:06;;;;;;;29.38;18.13;;;;;;;2.20;100.00;101026.56;5058853;28;20032;-72
2023/12/06 03:11:31;;;;;;;30.55;16.40;;;;;;;2.20;100.00;101021.25;5060343;28;20066;-72
2023/12/06 03:13:56;;;;;;;28.80;16.42;;;;;;;2.23;100.00;101020.28;5066043;28;20284;-72
2023/12/06 03:16:21;;;;;;;31.73;16.75;;;;;;;2.23;100.00;101009.69;5066894;28;20017;-72
2023/12/06 03:18:47;;;;;;;29.85;17.40;;;;;;;2.23;100.00;101015.84;5068332;28;20051;-72
2023/12/06 03:21:12;;;;;;;30.30;17.10;;;;;;;2.24;100.00;101028.19;5057872;28;20039;-72
2023/12/06 03:23:37;;;;;;;29.75;17.27;;;;;;;2.24;100.00;101029.97;5066557;28;20443;-72
2023/12/06 03:26:03;;;;;;;28.30;15.80;;;;;;;2.25;100.00;101029.06;5060803;28;20093;-72
2023/12/06 03:28:28;;;;;;;31.73;17.52;;;;;;;2.25;100.00;101034.34;5058727;28;20092;-72
2023/12/06 03:30:53;;;;;;;27.17;15.95;;;;;;;2.26;100.00;101038.75;5063552;28;20032;-72
2023/12/06 03:33:19;;;;;;;28.35;16.52;;;;;;;2.29;100.00;101043.94;5071825;28;20082;-72
2023/12/06 03:35:44;;;;;;;30.77;17.02;;;;;;;2.31;100.00;101047.38;5069606;28;20029;-72
2023/12/06 03:38:12;;;;;;;30.30;17.20;;;;;;;2.32;100.00;101049.13;5057395;28;20032;-72
2023/12/06 03:40:37;;;;;;;30.98;17.25;;;;;;;2.33;100.00;101045.56;5072530;28;20055;-72
2023/12/06 03:43:03;;;;;;;29.83;16.75;;;;;;;2.33;100.00;101044.69;5066393;28;20032;-72
2023/12/06 03:45:28;;;;;;;32.15;17.17;;;;;;;2.34;100.00;101054.38;5067286;28;20058;-72
2023/12/06 03:47:53;;;;;;;28.40;16.20;;;;;;;2.36;100.00;101050.75;5058186;28;20110;-72
2023/12/06 03:50:18;;;;;;;29.67;17.73;;;;;;;2.38;100.00;101053.34;5062240;28;20049;-72
2023/12/06 03:52:44;;;;;;;28.65;15.88;;;;;;;2.40;100.00;101048.84;5059142;28;20115;-72
2023/12/06 03:55:12;;;;;;;30.13;17.25;;;;;;;2.41;100.00;101056.75;5062885;28;20054;-72
2023/12/06 03:57:37;;;;;;;28.92;16.25;;;;;;;2.43;100.00;101057.56;5055198;28;20385;-72
2023/12/06 04:00:04;;;;;;;30.08;15.77;;;;;;;2.44;100.00;101061.94;5045002;28;20103;-72
2023/12/06 04:02:29;;;;;;;28.60;15.80;;;;;;;2.45;100.00;101053.06;5043056;28;20041;-72
2023/12/06 04:04:54;;;;;;;27.98;15.63;;;;;;;2.47;100.00;101057.47;5049114;28;20035;-72
2023/12/06 04:07:20;;;;;;;28.98;16.42;;;;;;;2.47;100.00;101060.13;5065906;28;20044;-72
2023/12/06 04:09:45;;;;;;;30.80;16.67;;;;;;;2.48;100.00;101061.84;5061086;28;20017;-72
2023/12/06 04:12:10;;;;;;;31.50;15.63;;;;;;;2.48;100.00;101068.03;5059716;28;20043;-72
2023/12/06 04:14:35;;;;;;;29.90;15.55;;;;;;;2.50;100.00;101063.50;5068406;28;20044;-72
2023/12/06 04:17:01;;;;;;;28.15;15.35;;;;;;;2.52;100.00;101066.09;5066474;28;20025;-71
2023/12/06 04:19:26;;;;;;;31.27;15.63;;;;;;;2.53;100.00;101074.00;5063973;28;20255;-69
2023/12/06 04:21:52;;;;;;;30.58;16.27;;;;;;;2.55;100.00;101073.97;5055896;28;20055;-70
2023/12/06 04:24:17;;;;;;;31.33;15.82;;;;;;;2.57;100.00;101072.13;5064334;28;20032;-70
2023/12/06 04:26:42;;;;;;;28.48;15.80;;;;;;;2.60;100.00;101079.97;5062948;28;20029;-72
2023/12/06 04:29:08;;;;;;;29.73;16.45;;;;;;;2.60;100.00;101083.47;5060276;28;20036;-70
2023/12/06 04:31:33;;;;;;;28.13;16.15;;;;;;;2.61;100.00;101079.91;5054845;28;20433;-69
2023/12/06 04:33:59;;;;;;;31.38;16.95;;;;;;;2.62;100.00;101078.13;5057418;28;20032;-70
2023/12/06 04:36:24;;;;;;;29.58;16.30;;;;;;;2.64;100.00;101081.59;5051833;28;20025;-70
2023/12/06 04:38:49;;;;;;;27.27;14.93;;;;;;;2.68;100.00;101085.00;5064344;28;20391;-69
2023/12/06 04:41:14;;;;;;;33.40;19.65;;;;;;;2.67;100.00;101092.09;5063146;28;20436;-72
2023/12/06 04:43:40;;;;;;;28.75;17.48;;;;;;;2.67;100.00;101092.09;5060575;28;20029;-70
2023/12/06 04:46:05;;;;;;;31.73;17.17;;;;;;;2.69;100.00;101092.88;5052026;28;20055;-70
2023/12/06 04:48:30;;;;;;;30.80;17.52;;;;;;;2.72;100.00;101095.44;5064365;28;20104;-70
2023/12/06 04:50:56;;;;;;;28.38;16.33;;;;;;;2.73;100.00;101101.63;5064621;28;20059;-70
2023/12/06 04:53:24;;;;;;;33.38;18.27;;;;;;;2.73;100.00;101097.16;5064689;28;20033;-70
2023/12/06 04:55:49;;;;;;;27.20;15.18;;;;;;;2.73;100.00;101098.97;5064270;28;20047;-70
2023/12/06 04:58:14;;;;;;;31.15;17.33;;;;;;;2.74;100.00;101096.25;5061063;28;20048;-70
2023/12/06 05:00:40;;;;;;;28.33;17.25;;;;;;;2.74;100.00;101106.88;5067586;28;20023;-69
2023/12/06 05:03:05;;;;;;;29.77;17.42;;;;;;;2.74;100.00;101100.72;5062535;28;20020;-70
2023/12/06 05:05:30;;;;;;;29.80;17.75;;;;;;;2.74;100.00;101109.53;5059494;28;20109;-70
2023/12/06 05:07:56;;;;;;;29.33;15.95;;;;;;;2.75;100.00;101105.97;5056504;28;20159;-70
2023/12/06 05:10:22;;;;;;;28.48;16.40;;;;;;;2.76;100.00;101110.31;5058831;28;20040;-70
2023/12/06 05:12:47;;;;;;;30.83;17.20;;;;;;;2.77;100.00;101116.53;5068123;28;20122;-70
2023/12/06 05:15:13;;;;;;;30.17;16.70;;;;;;;2.78;100.00;101118.22;5062804;28;20391;-70
2023/12/06 05:17:38;;;;;;;30.83;17.77;;;;;;;2.77;100.00;101122.69;5061111;28;20040;-70
2023/12/06 05:20:06;;;;;;;30.70;17.08;;;;;;;2.77;100.00;101117.38;5058256;28;20120;-70
2023/12/06 05:22:31;;;;;;;31.83;18.00;;;;;;;2.79;100.00;101120.81;5060424;28;20027;-70
2023/12/06 05:24:57;;;;;;;28.60;16.63;;;;;;;2.82;100.00;101124.31;5056128;28;20078;-70
2023/12/06 05:27:22;;;;;;;31.67;17.90;;;;;;;2.83;100.00;101134.03;5058750;28;20089;-72
2023/12/06 05:29:47;;;;;;;30.40;17.05;;;;;;;2.83;100.00;101126.91;5055359;28;20404;-72
2023/12/06 05:32:13;;;;;;;33.65;18.88;;;;;;;2.83;100.00;101128.72;5057291;28;20044;-71
2023/12/06 05:34:38;;;;;;;33.47;18.02;;;;;;;2.83;100.00;101132.22;5054528;28;20100;-72
2023/12/06 05:37:03;;;;;;;32.15;18.95;;;;;;;2.83;100.00;101129.56;5055765;28;20025;-72
2023/12/06 05:39:31;;;;;;;32.95;17.95;;;;;;;2.85;100.00;101129.50;5054465;28;20115;-72
2023/12/06 05:41:56;;;;;;;33.00;18.67;;;;;;;2.85;100.00;101124.19;5053836;28;20127;-72
2023/12/06 05:44:21;;;;;;;31.80;18.27;;;;;;;2.87;100.00;101135.59;5055485;28;20112;-72
2023/12/06 05:46:47;;;;;;;29.75;17.58;;;;;;;2.87;100.00;101123.22;5052363;28;20060;-72
2023/12/06 05:49:13;;;;;;;31.73;18.38;;;;;;;2.88;100.00;101134.69;5057682;28;20098;-72
2023/12/06 05:51:38;;;;;;;31.50;17.83;;;;;;;2.91;100.00;101139.88;5064107;28;20468;-72
2023/12/06 05:54:04;;;;;;;32.00;19.02;;;;;;;2.92;100.00;101142.50;5055719;28;20089;-72
2023/12/06 05:56:29;;;;;;;30.08;16.73;;;;;;;2.94;100.00;101138.00;5049726;28;20398;-71
2023/12/06 05:58:54;;;;;;;28.70;18.20;;;;;;;2.97;100.00;101132.59;5046634;28;20127;-72
2023/12/06 06:01:20;;;;;;;31.58;17.63;;;;;;;2.98;100.00;101141.41;5055369;28;20330;-72
2023/12/06 06:03:45;;;;;;;31.20;17.98;;;;;;;3.00;100.00;101141.34;5047103;28;20060;-72
2023/12/06 06:06:10;;;;;;;31.80;18.95;;;;;;;3.01;100.00;101157.22;5053245;28;20327;-72
2023/12/06 06:08:36;;;;;;;28.42;16.05;;;;;;;3.02;100.00;101153.66;5049005;28;20058;-72
2023/12/06 06:11:02;;;;;;;34.78;18.50;;;;;;;3.04;100.00;101150.94;5051636;28;20025;-72
2023/12/06 06:13:29;;;;;;;30.23;17.58;;;;;;;3.04;100.00;101145.63;5052570;28;20036;-72
2023/12/06 06:15:55;;;;;;;29.95;18.20;;;;;;;3.05;100.00;101150.03;5046011;28;20024;-72
2023/12/06 06:18:21;;;;;;;29.02;16.75;;;;;;;3.05;100.00;101153.53;5057375;28;20376;-71
2023/12/06 06:20:46;;;;;;;28.80;17.30;;;;;;;3.08;100.00;101157.88;5059335;28;20286;-72
2023/12/06 06:23:11;;;;;;;30.33;17.13;;;;;;;3.10;100.00;101163.97;5045781;28;20518;-72
2023/12/06 06:25:37;;;;;;;31.30;17.45;;;;;;;3.11;100.00;101163.91;5050121;28;20033;-72
2023/12/06 06:28:02;;;;;;;29.20;15.77;;;;;;;3.15;100.00;101170.00;5050567;28;20054;-72
2023/12/06 06:30:30;;;;;;;30.10;16.98;;;;;;;3.14;100.00;101174.41;5056991;28;20025;-72
2023/12/06 06:32:55;;;;;;;28.75;16.25;;;;;;;3.13;100.00;101178.03;5052640;28;20047;-72
2023/12/06 06:35:24;;;;;;;28.63;15.75;;;;;;;3.13;100.00;101178.03;5058482;28;20024;-72
2023/12/06 06:37:49;;;;;;;28.15;14.57;;;;;;;3.13;100.00;101191.31;5048177;28;20069;-70
2023/12/06 06:40:15;;;;;;;28.50;15.25;;;;;;;3.12;100.00;101189.56;5061572;28;20051;-70
2023/12/06 06:42:41;;;;;;;30.05;16.02;;;;;;;3.13;100.00;101199.28;5062954;28;20025;-70
2023/12/06 06:45:08;;;;;;;31.48;15.23;;;;;;;3.11;100.00;101195.78;5065019;28;20440;-69
2023/12/06 06:47:34;;;;;;;29.25;16.85;;;;;;;3.11;100.00;101189.63;5052507;28;20048;-69
2023/12/06 06:49:59;;;;;;;29.50;16.88;;;;;;;3.12;100.00;101194.03;5050818;28;20505;-70
2023/12/06 06:52:24;;;;;;;27.83;15.88;;;;;;;3.10;100.00;101193.19;5062473;28;20083;-69
2023/12/06 06:54:50;;;;;;;28.88;15.93;;;;;;;3.09;100.00;101192.34;5059568;28;20028;-70
2023/12/06 06:57:15;;;;;;;31.83;15.48;;;;;;;3.08;100.00;101195.91;5066521;28;20021;-70
2023/12/06 06:59:40;;;;;;;28.77;15.48;;;;;;;3.10;100.00;101202.00;5057005;28;20273;-70
2023/12/06 07:02:06;;;;;;;27.73;15.23;;;;;;;3.11;100.00;101195.78;5056611;28;20033;-70
2023/12/06 07:04:31;;;;;;;27.17;14.85;;;;;;;3.13;100.00;101209.91;5056948;28;20021;-72
2023/12/06 07:06:57;;;;;;;28.30;15.82;;;;;;;3.14;100.00;101203.63;5056940;28;20055;-70
2023/12/06 07:09:23;;;;;;;28.00;16.80;;;;;;;3.15;100.00;101201.88;5064777;28;20031;-70
2023/12/06 07:11:48;;;;;;;28.70;16.52;;;;;;;3.15;100.00;101200.06;5055034;28;20874;-70
2023/12/06 07:14:14;;;;;;;30.13;15.75;;;;;;;3.15;100.00;101208.03;5062283;28;20021;-70
2023/12/06 07:16:39;;;;;;;30.58;17.27;;;;;;;3.13;100.00;101204.59;5054400;28;20024;-71
2023/12/06 07:19:04;;;;;;;29.27;15.23;;;;;;;3.14;100.00;101208.09;5064300;28;20048;-70
2023/12/06 07:21:29;;;;;;;28.50;15.18;;;;;;;3.15;100.00;101216.00;5057711;28;20021;-72
2023/12/06 07:23:55;;;;;;;27.25;15.30;;;;;;;3.15;100.00;101208.03;5052923;28;20526;-69
2023/12/06 07:26:20;;;;;;;28.88;14.57;;;;;;;3.17;100.00;101209.78;5068057;28;20036;-70
2023/12/06 07:28:45;;;;;;;29.55;14.70;;;;;;;3.18;100.00;101215.03;5054697;28;20029;-70
2023/12/06 07:31:11;;;;;;;29.75;16.77;;;;;;;3.17;100.00;101221.25;5051818;28;20060;-70
2023/12/06 07:33:39;;;;;;;29.27;15.52;;;;;;;3.13;100.00;101214.31;5049535;28;20028;-69
2023/12/06 07:36:05;;;;;;;27.80;14.40;;;;;;;3.07;100.00;101223.38;5068844;28;20036;-70
2023/12/06 07:38:30;;;;;;;28.08;14.70;;;;;;;2.99;100.00;101225.44;5064240;28;20503;-70
2023/12/06 07:40:56;;;;;;;27.00;15.00;;;;;;;2.91;100.00;101230.16;5053184;28;20032;-72
2023/12/06 07:43:25;;;;;;;25.85;14.02;;;;;;;2.84;100.00;101231.28;5050988;28;20036;-70
2023/12/06 07:45:50;;;;;;;28.80;15.52;;;;;;;2.76;100.00;101227.09;5063476;28;20017;-70
2023/12/06 07:48:17;;;;;;;29.40;15.65;;;;;;;2.70;100.00;101232.63;5059749;28;20031;-71
2023/12/06 07:50:42;;;;;;;30.75;15.65;;;;;;;2.70;100.00;101231.78;5053047;28;20040;-72
2023/12/06 07:53:08;;;;;;;27.85;16.65;;;;;;;2.66;100.00;101236.31;5049395;28;20028;-72
2023/12/06 07:55:33;;;;;;;30.83;15.75;;;;;;;2.64;100.00;101240.81;5049913;28;20095;-72
2023/12/06 07:57:58;;;;;;;28.90;15.65;;;;;;;2.58;100.00;101244.53;5044277;28;20029;-73
2023/12/06 08:00:25;;;;;;;25.58;14.25;;;;;;;2.55;100.00;101241.13;5058375;28;20393;-74
2023/12/06 08:02:50;;;;;;;28.05;15.70;;;;;;;2.43;100.00;101239.72;5046921;28;20057;-74
2023/12/06 08:05:19;;;;;;;29.90;16.02;;;;;;;2.36;100.00;101249.69;5047838;28;20523;-74
2023/12/06 08:07:44;;;;;;;29.77;15.87;;;;;;;2.30;100.00;101254.31;5047558;28;20082;-70
2023/12/06 08:10:12;;;;;;;28.27;13.75;;;;;;;2.23;100.00;101258.97;5056743;28;20028;-70
2023/12/06 08:12:38;;;;;;;28.45;15.05;;;;;;;2.12;100.00;101261.09;5047626;28;20044;-69
2023/12/06 08:15:07;;;;;;;29.05;14.85;;;;;;;2.08;100.00;101261.19;5055488;28;20031;-70
2023/12/06 08:17:32;;;;;;;26.60;14.77;;;;;;;2.06;100.00;101265.66;5055225;28;20080;-70
2023/12/06 08:19:58;;;;;;;29.48;15.57;;;;;;;2.05;100.00;101271.88;5052724;28;20068;-70
2023/12/06 08:22:23;;;;;;;28.50;15.23;;;;;;;2.03;100.00;101264.88;5057780;28;20035;-70
2023/12/06 08:24:50;;;;;;;27.83;15.55;;;;;;;2.04;100.00;101267.50;5052631;28;20048;-72
2023/12/06 08:27:17;;;;;;;28.10;14.05;;;;;;;2.07;100.00;101267.38;5063334;28;20033;-70
2023/12/06 08:29:42;;;;;;;29.80;13.40;;;;;;;2.07;100.00;101278.00;5052721;28;20052;-70
2023/12/06 08:32:07;;;;;;;26.00;13.35;;;;;;;2.05;100.00;101274.53;5067911;28;20030;-70
2023/12/06 08:34:33;;;;;;;30.98;15.25;;;;;;;2.06;100.00;101273.59;5063470;28;20056;-69
2023/12/06 08:36:58;;;;;;;27.52;13.40;;;;;;;2.08;100.00;101276.25;5050338;28;20039;-72
2023/12/06 08:39:23;;;;;;;27.88;14.60;;;;;;;2.08;100.00;101281.53;5067335;28;20028;-69
2023/12/06 08:41:48;;;;;;;26.70;14.13;;;;;;;2.10;100.00;101280.56;5055038;28;20020;-69
2023/12/06 08:44:14;;;;;;;28.52;14.98;;;;;;;2.17;100.00;101285.69;5055260;28;20017;-69
2023/12/06 08:46:39;;;;;;;30.73;15.63;;;;;;;2.28;100.00;101288.84;5053184;28;20728;-70
2023/12/06 08:49:04;;;;;;;32.38;14.60;;;;;;;2.35;100.00;101294.84;5056395;28;20265;-70
2023/12/06 08:51:29;;;;;;;28.13;14.30;;;;;;;2.36;100.00;101292.13;5061936;28;20073;-71
2023/12/06 08:53:55;;;;;;;26.05;12.82;;;;;;;2.35;100.00;101298.34;5056352;28;20029;-72
2023/12/06 08:56:20;;;;;;;27.83;13.68;;;;;;;2.36;100.00;101308.06;5053238;28;20036;-70
2023/12/06 08:58:45;;;;;;;26.00;12.43;;;;;;;2.34;100.00;101307.22;5061687;28;20032;-70
2023/12/06 09:01:11;;;;;;;28.95;15.15;;;;;;;2.34;100.00;101309.00;5066443;28;20099;-69
2023/12/06 09:03:36;;;;;;;27.30;13.73;;;;;;;2.36;100.00;101317.81;5064605;28;20020;-70
2023/12/06 09:06:01;;;;;;;28.85;13.43;;;;;;;2.40;100.00;101317.66;5053218;28;20033;-70
2023/12/06 09:08:27;;;;;;;29.15;15.15;;;;;;;2.51;100.00;101313.78;5060187;28;20040;-72
2023/12/06 09:10:52;;;;;;;29.95;15.30;;;;;;;2.58;100.00;101307.38;5060175;28;20092;-72
2023/12/06 09:13:18;;;;;;;28.02;14.20;;;;;;;2.64;100.00;101317.78;5062978;28;20016;-72
2023/12/06 09:15:44;;;;;;;25.83;13.40;;;;;;;2.68;100.00;101324.72;5063424;28;20028;-72
2023/12/06 09:18:09;;;;;;;31.13;16.10;;;;;;;2.71;100.00;101319.31;5061189;28;20085;-73
2023/12/06 09:20:35;;;;;;;29.63;15.25;;;;;;;2.79;100.00;101321.69;5047430;28;20032;-73
2023/12/06 09:23:00;;;;;;;28.23;15.57;;;;;;;2.87;100.00;101321.44;5053706;28;20108;-74
2023/12/06 09:25:26;;;;;;;30.73;15.02;;;;;;;2.94;100.00;101320.31;5054027;28;20040;-73
2023/12/06 09:27:51;;;;;;;29.23;14.95;;;;;;;3.02;100.00;101312.97;5051950;28;20040;-71
2023/12/06 09:30:16;;;;;;;28.95;16.20;;;;;;;3.08;100.00;101319.84;5058332;28;20116;-72
2023/12/06 09:32:42;;;;;;;30.42;16.63;;;;;;;3.16;100.00;101325.75;5064545;28;20037;-72
2023/12/06 09:35:08;;;;;;;27.73;14.80;;;;;;;3.24;100.00;101328.16;5068261;28;20040;-71
2023/12/06 09:37:34;;;;;;;27.15;15.15;;;;;;;3.31;100.00;101324.38;5061876;28;20040;-72
2023/12/06 09:39:59;;;;;;;25.65;13.45;;;;;;;3.39;100.00;101324.09;5065175;28;20032;-72
2023/12/06 09:42:26;;;;;;;27.92;13.95;;;;;;;3.47;100.00;101335.28;5066320;28;20029;-72
2023/12/06 09:44:55;;;;;;;28.40;14.23;;;;;;;3.53;100.00;101342.19;5064402;28;20027;-71
2023/12/06 09:47:22;;;;;;;31.02;14.98;;;;;;;3.60;100.00;101346.34;5069328;28;20056;-72
2023/12/06 09:49:48;;;;;;;29.70;15.70;;;;;;;3.66;100.00;101359.41;5067403;28;20084;-72
2023/12/06 09:52:21;;;;;;;28.58;15.35;;;;;;;3.70;100.00;101347.75;5071158;28;20028;-72
2023/12/06 09:54:49;;;;;;;27.15;13.65;;;;;;;3.75;100.00;101350.25;5069208;28;20055;-72
2023/12/06 09:57:14;;;;;;;29.85;12.85;;;;;;;3.79;100.00;101357.19;5073094;28;20029;-72
2023/12/06 09:59:40;;;;;;;32.22;13.88;;;;;;;3.83;100.00;101365.00;5074238;28;20024;-72
2023/12/06 10:02:05;;;;;;;25.13;14.30;;;;;;;3.88;100.00;101361.28;5076038;28;20032;-72
2023/12/06 10:04:30;;;;;;;30.58;15.40;;;;;;;3.89;100.00;101353.25;5066303;28;20025;-72
2023/12/06 10:06:57;;;;;;;28.85;14.95;;;;;;;3.94;100.00;101361.94;5064863;28;20384;-72
2023/12/06 10:09:22;;;;;;;31.20;14.32;;;;;;;3.96;100.00;101360.09;5066036;28;20051;-72
2023/12/06 10:11:48;;;;;;;31.90;15.07;;;;;;;4.02;100.00;101361.66;5064645;28;20048;-72
2023/12/06 10:14:20;;;;;;;27.48;13.73;;;;;;;4.09;100.00;101359.66;5062702;28;20027;-71
2023/12/06 10:16:47;;;;;;;25.38;13.07;;;;;;;4.14;100.00;101363.88;5063411;28;20092;-72
2023/12/06 10:19:19;;;;;;;27.85;13.48;;;;;;;4.20;100.00;101362.75;5067780;28;20036;-72
2023/12/06 10:21:49;;;;;;;26.83;13.30;;;;;;;4.24;100.00;101369.69;5067818;28;20088;-72
2023/12/06 10:24:14;;;;;;;25.30;13.10;;;;;;;4.30;100.00;101372.09;5069130;28;20031;-72
2023/12/06 10:26:40;;;;;;;27.45;12.93;;;;;;;4.33;100.00;101373.78;5072808;28;20033;-72
2023/12/06 10:29:05;;;;;;;27.45;13.50;;;;;;;4.38;100.00;101363.84;5073362;28;20583;-72
2023/12/06 10:31:42;;;;;;;24.02;11.63;;;;;;;4.40;100.00;101369.09;5075135;28;20084;-72
2023/12/06 10:34:08;;;;;;;25.00;12.32;;;;;;;4.43;100.00;101367.16;5073935;28;20025;-72
2023/12/06 10:36:35;;;;;;;23.88;12.18;;;;;;;4.45;100.00;101367.09;5074332;28;20126;-72
2023/12/06 10:39:03;;;;;;;25.23;12.43;;;;;;;4.46;100.00;101364.38;5073101;28;20168;-72
2023/12/06 10:41:31;;;;;;;24.92;12.18;;;;;;;4.51;100.00;101362.41;5075339;28;20032;-72
2023/12/06 10:43:59;;;;;;;28.02;14.35;;;;;;;4.51;100.00;101362.41;5067131;28;20083;-72
2023/12/06 10:46:26;;;;;;;26.40;13.65;;;;;;;4.53;100.00;101360.56;5066726;28;20024;-72
2023/12/06 10:48:53;;;;;;;30.63;13.52;;;;;;;4.57;100.00;101355.09;5065136;28;20024;-74
2023/12/06 10:51:19;;;;;;;29.55;13.57;;;;;;;4.58;100.00;101357.69;5056658;28;20120;-74
2023/12/06 10:53:46;;;;;;;27.40;13.68;;;;;;;4.60;100.00;101360.31;5052983;28;20029;-74
2023/12/06 10:56:15;;;;;;;29.35;13.80;;;;;;;4.64;100.00;101359.25;5051253;28;20044;-74
2023/12/06 10:58:40;;;;;;;32.03;15.20;;;;;;;4.66;100.00;101354.75;5053935;28;20107;-73
2023/12/06 11:01:08;;;;;;;30.40;14.43;;;;;;;4.69;100.00;101357.28;5051111;28;20127;-74
2023/12/06 11:03:33;;;;;;;30.60;15.05;;;;;;;4.70;100.00;101367.00;5053308;28;20099;-73